Portada
METAR-TAF:

METAR-TAF

Aeropuertos :

Aeropuerto Internacional de El Arish

El Arish, Egipto

latitud: 31-05N, longitud: 033-49E, altitud: 31 m

METAR: falta

Hora: 08:56 (06:56 UTC)

Pronóstico

El informe se hizo hace 1 hora y 56 minutos, a las 05:00 UTC
Pronóstico válido del 19 a las 06 UTC al 20 a las 12 UTC
Viento 12 kt del norte-noroeste
Visibilidad 10 km o más
Nubes dispersas a una altura de 2500 ft
Evolucionando progresivamente
del 19 a las 21 UTC al 19 a las 23 UTC
Viento 3 kt con dirección variable
Evolucionando progresivamente
del 20 a las 06 UTC al 20 a las 08 UTC
Viento 10 kt del oeste-noroeste

TAF: HEAR 190500Z 1906/2012 34012KT 9999 SCT025 BECMG 1921/1923 VRB03KT BECMG 2006/2008 29010KT

Observaciones y pronósticos meteorológicos de más de 4000 aeropuertos (mensajes METAR y TAF).

Los puntos amarillos y rojos representan las estaciones disponibles.

Ponga el ratón en el punto deseado para ver el nombre de la estación.

Haga clic para ver las observaciones y los pronósticos meteorológicos.

Para cambiar el mapa : haga clic en los botones verdes con una cruz de color negro para hacer un zoom, en el botón verde con un guión para alejar o en las flechas verdes para mapas adyacentes.


METAR-TAF: